MAPA DE AEROPUERTO

INFORMACIÓN METAR y TAF


Deprecated: The each() function is deprecated. This message will be suppressed on further calls in /home/customer/www/clickair-va.com/public_html/VAM/vam/helpers/get_metar.php on line 20
METAR FOR UUEE
ADDS - METARS form results

(0339 UTC 25 May 2022)
Data provider http://aviationweather.gov/metar/data/
 
METAR text: UUEE 250330Z 32002MPS CAVOK 04/00 Q1014 R24L/CLRD62 R24C/CLRD62 NOSIG
Conditions at: UUEE (MOSCOW/SHEREMET', RU) observed 0330 UTC 25 May 2022
Temperature: 4.0°C (39°F)
Dewpoint: 0.0°C (32°F) [RH = 75%]
Pressure (altimeter): 29.94 inches Hg (1014.0 mb)
Winds: from the NW (320 degrees) at 5 MPH (4 knots; 2.1 m/s)
Visibility: 6 or more miles (10+ km)
Ceiling: ceiling and visibility are OK
Clouds: unknown
Weather: no significant weather observed at this time

METAR text: UUEE 250300Z 30003MPS CAVOK 04/M00 Q1014 R24L/CLRD62 R24C/CLRD62 NOSIG
Conditions at: UUEE (MOSCOW/SHEREMET', RU) observed 0300 UTC 25 May 2022
Temperature: 4.0°C (39°F)
Dewpoint: 0.0°C (32°F) [RH = 75%]
Pressure (altimeter): 29.94 inches Hg (1014.0 mb)
Winds: from the WNW (300 degrees) at 7 MPH (6 knots; 3.1 m/s)
Visibility: 6 or more miles (10+ km)
Ceiling: ceiling and visibility are OK
Clouds: unknown
Weather: no significant weather observed at this time

Forecast for: UUEE (MOSCOW/SHEREMET', RU)
Text: TAF UUEE 250151Z 2503/2603 33003MPS 9999 SCT030 TX12/2512Z TN04/2601Z
Forecast period: 0300 to 0600 UTC 25 May 2022
Forecast type: FROM: standard forecast or significant change
Winds: from the NNW (330 degrees) at 7 MPH (6 knots; 3.1 m/s)
Visibility: 6 or more miles (10+ km)
Ceiling: at least 12,000 feet AGL
Clouds: scattered clouds at 3000 feet AGL
Weather: no significant weather forecast for this period
Text: BECMG 2506/2509 33008MPS
Forecast period: 0600 to 1500 UTC 25 May 2022
Forecast type: BECOMING: Conditions expected to become as follows by 0900 UTC 25 May 2022
Winds: from the NNW (330 degrees) at 18 MPH (16 knots; 8.2 m/s)
Visibility: 6 or more miles (10+ km)
Ceiling: at least 12,000 feet AGL
Clouds: scattered clouds at 3000 feet AGL
Weather: no significant weather forecast for this period
Text: BECMG 2515/2518 25003MPS
Forecast period: 1500 UTC 25 May 2022 to 0300 UTC 26 May 2022
Forecast type: BECOMING: Conditions expected to become as follows by 1800 UTC 25 May 2022
Winds: from the WSW (250 degrees) at 7 MPH (6 knots; 3.1 m/s)
Visibility: 6 or more miles (10+ km)
Ceiling: at least 12,000 feet AGL
Clouds: scattered clouds at 3000 feet AGL
Weather: no significant weather forecast for this period